Time;durP1;ratioP1;P1;durP2;ratioP2;P2;SDS_P1;SDS_P2;PMS_P1;PMS_P2;Temp;Humidity;BMP_temperature;BMP_pressure;BME280_temperature;BME280_humidity;BME280_pressure;Samples;Min_cycle;Max_cycle;Signal;HPM_P1;HPM_P2
2022/02/10 00:08:03;;;;;;;3.30;1.83;;;;;;;7.42;100.00;102170.28;5088315;28;20416;-30
2022/02/10 00:13:41;;;;;;;2.88;1.38;;;;;;;7.39;100.00;102154.16;5088188;28;20503;-31
2022/02/10 00:16:32;;;;;;;2.30;1.15;;;;;;;7.40;100.00;102155.81;5076587;28;20127;-31
2022/02/10 00:19:29;;;;;;;5.85;1.80;;;;;;;7.39;100.00;102159.69;5086631;28;20040;-31
2022/02/10 00:22:02;;;;;;;2.35;1.13;;;;;;;7.38;100.00;102146.91;5088465;28;20040;-31
2022/02/10 00:24:59;;;;;;;3.95;1.42;;;;;;;7.38;100.00;102141.34;5087353;28;20051;-32
2022/02/10 00:35:51;;;;;;;2.83;1.00;;;;;;;7.36;100.00;102129.63;5087890;28;20400;-31
2022/02/10 00:38:22;;;;;;;4.20;1.45;;;;;;;7.36;100.00;102126.88;5079267;28;20408;-32
2022/02/10 00:40:50;;;;;;;3.47;0.73;;;;;;;7.35;100.00;102119.63;5088027;28;20056;-31
2022/02/10 00:43:18;;;;;;;3.30;0.95;;;;;;;7.35;100.00;102126.03;5087915;28;20043;-33
2022/02/10 00:45:47;;;;;;;4.32;1.17;;;;;;;7.37;100.00;102125.78;5086648;28;20048;-32
2022/02/10 00:48:16;;;;;;;3.28;0.70;;;;;;;7.37;100.00;102120.22;5087738;28;20451;-31
2022/02/10 00:50:46;;;;;;;6.30;1.20;;;;;;;7.39;100.00;102118.03;5087429;28;20048;-30
2022/02/10 00:53:17;;;;;;;5.50;1.30;;;;;;;7.37;100.00;102115.50;5086957;28;20056;-30
2022/02/10 00:55:46;;;;;;;8.60;1.85;;;;;;;7.37;100.00;102115.50;5087184;28;20117;-30
2022/02/10 00:58:21;;;;;;;5.03;1.20;;;;;;;7.34;100.00;102106.81;5087495;28;20044;-30
2022/02/10 01:31:17;;;;;;;4.72;1.08;;;;;;;7.20;100.00;102084.88;5070648;28;20414;-31
2022/02/10 01:33:46;;;;;;;4.53;1.50;;;;;;;7.21;100.00;102086.56;5061719;28;20049;-30
2022/02/10 01:36:14;;;;;;;4.38;1.40;;;;;;;7.20;100.00;102078.50;5072190;28;20079;-33
2022/02/10 01:38:42;;;;;;;3.45;1.33;;;;;;;7.20;100.00;102072.94;5073291;28;20044;-31
2022/02/10 01:41:47;;;;;;;3.95;1.73;;;;;;;7.20;100.00;102072.94;5072141;28;20080;-31
2022/02/10 01:58:09;;;;;;;3.83;1.60;;;;;;;7.10;100.00;102054.16;5072878;28;20049;-31
2022/02/10 02:03:25;;;;;;;3.33;1.67;;;;;;;7.02;100.00;102053.69;5072160;28;20400;-32
2022/02/10 02:06:00;;;;;;;3.47;1.35;;;;;;;7.05;100.00;102047.66;5072558;28;20050;-33
2022/02/10 02:08:31;;;;;;;3.00;1.40;;;;;;;7.05;100.00;102042.94;5072837;28;20040;-31
2022/02/10 02:11:01;;;;;;;3.28;1.40;;;;;;;7.05;100.00;102047.66;5071866;28;20047;-31
2022/02/10 02:13:29;;;;;;;3.40;1.05;;;;;;;7.03;100.00;102039.56;5072476;28;20068;-31
2022/02/10 02:15:57;;;;;;;3.80;1.60;;;;;;;7.05;100.00;102039.34;5071469;28;20045;-31
2022/02/10 02:18:25;;;;;;;3.88;1.42;;;;;;;7.04;100.00;102035.72;5071689;28;20059;-31
2022/02/10 02:20:56;;;;;;;4.43;1.42;;;;;;;7.04;100.00;102030.16;5072567;28;20075;-33
2022/02/10 02:23:27;;;;;;;5.30;1.60;;;;;;;7.02;100.00;102029.56;5060989;28;20051;-29
2022/02/10 02:26:02;;;;;;;6.65;1.58;;;;;;;7.01;100.00;102018.72;5072398;28;20051;-31
2022/02/10 02:28:35;;;;;;;3.70;1.15;;;;;;;7.00;100.00;102020.63;5072229;28;20048;-30
2022/02/10 02:31:08;;;;;;;4.03;1.50;;;;;;;7.02;100.00;102017.63;5071612;28;20527;-31
2022/02/10 02:34:07;;;;;;;3.15;1.15;;;;;;;6.99;100.00;102013.44;5072227;28;20079;-32
2022/02/10 03:07:11;;;;;;;4.70;1.08;;;;;;;6.78;100.00;101983.59;5070645;28;20048;-31
2022/02/10 03:09:43;;;;;;;3.75;1.17;;;;;;;6.76;100.00;101986.63;5071406;28;20042;-30
2022/02/10 03:12:13;;;;;;;4.57;1.40;;;;;;;6.75;100.00;101984.94;5070779;28;20052;-31
2022/02/10 03:14:47;;;;;;;3.58;1.08;;;;;;;6.73;100.00;101973.22;5068196;28;20289;-31
2022/02/10 03:20:14;;;;;;;3.15;0.95;;;;;;;6.72;100.00;101977.09;5067848;28;20040;-30
2022/02/10 03:59:35;;;;;;;2.35;0.70;;;;;;;6.73;100.00;101970.47;5071388;28;20044;-31
2022/02/10 04:04:57;;;;;;;4.20;1.75;;;;;;;6.68;100.00;101973.13;5044331;28;20044;-31
2022/02/10 04:07:37;;;;;;;3.13;1.30;;;;;;;6.69;100.00;101971.19;5070850;28;20060;-30
2022/02/10 04:10:39;;;;;;;4.63;2.13;;;;;;;6.71;100.00;101971.78;5069837;28;20489;-30
2022/02/10 04:16:00;;;;;;;6.55;2.30;;;;;;;6.72;100.00;101970.69;5070120;28;20433;-31
2022/02/10 04:19:05;;;;;;;5.03;2.05;;;;;;;6.74;100.00;101968.53;5070607;28;20048;-30
2022/02/10 04:21:42;;;;;;;4.07;2.10;;;;;;;6.71;100.00;101974.56;5070589;28;20066;-30
2022/02/10 04:24:24;;;;;;;3.10;1.60;;;;;;;6.72;100.00;101979.03;5068457;28;20378;-31
2022/02/10 04:26:59;;;;;;;3.80;1.10;;;;;;;6.71;100.00;101974.56;5070510;28;20059;-30
2022/02/10 04:38:31;;;;;;;6.22;1.20;;;;;;;6.69;100.00;101985.91;5069332;28;20458;-31
2022/02/10 04:44:26;;;;;;;6.15;1.38;;;;;;;6.68;100.00;101983.38;5051048;28;20057;-33
2022/02/10 04:55:42;;;;;;;5.78;1.10;;;;;;;6.64;100.00;101977.47;5073803;28;20040;-30
2022/02/10 04:58:30;;;;;;;5.78;0.90;;;;;;;6.64;100.00;101984.94;5072740;28;20086;-30
2022/02/10 05:01:14;;;;;;;4.57;1.00;;;;;;;6.63;100.00;101978.56;5073753;28;20040;-31
2022/02/10 05:12:51;;;;;;;5.53;1.25;;;;;;;6.62;100.00;101968.53;5072860;28;20779;-30
2022/02/10 05:18:03;;;;;;;5.65;0.98;;;;;;;6.61;100.00;101958.53;5073586;28;20114;-30
2022/02/10 05:21:03;;;;;;;2.33;0.70;;;;;;;6.62;100.00;101951.91;5072831;28;20140;-30
2022/02/10 05:23:51;;;;;;;2.60;0.98;;;;;;;6.63;100.00;101958.28;5072842;28;20301;-32
2022/02/10 05:32:20;;;;;;;9.57;1.50;;;;;;;6.60;100.00;101947.69;5063749;28;20143;-30
2022/02/10 05:34:53;;;;;;;4.70;1.15;;;;;;;6.55;100.00;101949.28;5061940;28;20503;-30
2022/02/10 05:37:25;;;;;;;5.75;0.95;;;;;;;6.53;100.00;101951.47;5073193;28;20110;-32
2022/02/10 05:39:55;;;;;;;6.43;1.77;;;;;;;6.49;100.00;101944.72;5061365;28;20412;-31
2022/02/10 05:42:54;;;;;;;5.38;1.00;;;;;;;6.50;100.00;101949.19;5073100;28;20044;-31
2022/02/10 05:45:28;;;;;;;6.13;1.08;;;;;;;6.45;100.00;101946.28;5064340;28;20055;-29
2022/02/10 05:48:15;;;;;;;7.60;1.25;;;;;;;6.44;100.00;101949.31;5072222;28;20052;-29
2022/02/10 05:51:14;;;;;;;5.65;1.30;;;;;;;6.41;100.00;101944.25;5072849;28;20049;-32
2022/02/10 05:54:00;;;;;;;4.25;0.90;;;;;;;6.39;100.00;101958.38;5063844;28;20136;-30
2022/02/10 05:56:38;;;;;;;2.90;0.73;;;;;;;6.37;100.00;101960.56;5072437;28;20072;-30
2022/02/10 05:59:39;;;;;;;5.63;1.00;;;;;;;6.37;100.00;101957.78;5072568;28;20059;-30
2022/02/10 06:02:44;;;;;;;5.63;1.23;;;;;;;6.34;100.00;101957.44;5072029;28;20386;-30
2022/02/10 06:47:30;;;;;;;3.70;0.77;;;;;;;6.08;100.00;101980.94;5071722;28;20124;-31
2022/02/10 06:53:02;;;;;;;6.65;1.10;;;;;;;6.06;100.00;101983.13;5028898;28;20049;-30
2022/02/10 06:56:05;;;;;;;6.80;1.10;;;;;;;6.06;100.00;101972.03;5029100;28;20064;-32
2022/02/10 07:07:01;;;;;;;6.35;1.13;;;;;;;6.04;100.00;101979.75;5068763;28;20493;-30
2022/02/10 07:12:29;;;;;;;5.60;1.15;;;;;;;6.03;100.00;101980.81;5066885;28;20165;-30
2022/02/10 07:15:23;;;;;;;5.38;1.10;;;;;;;6.02;100.00;101979.13;5068750;28;20059;-32
2022/02/10 07:51:54;;;;;;;8.35;1.10;;;;;;;6.05;100.00;101995.28;5044792;28;20044;-30
2022/02/10 07:54:30;;;;;;;7.07;1.15;;;;;;;6.07;100.00;101998.66;5058057;28;20402;-31
2022/02/10 07:57:11;;;;;;;6.03;0.90;;;;;;;6.10;100.00;101992.63;5070201;28;20079;-31
2022/02/10 08:50:01;;;;;;;6.80;1.10;;;;;;;6.50;100.00;102018.50;5066680;28;20048;-30
2022/02/10 08:55:34;;;;;;;5.75;1.00;;;;;;;6.55;100.00;102026.09;5074101;28;20375;-30
2022/02/10 09:01:25;;;;;;;6.22;0.98;;;;;;;6.56;100.00;102017.53;5073446;28;20489;-31
2022/02/10 09:07:00;;;;;;;8.27;1.35;;;;;;;6.64;100.00;102024.63;5066807;28;20063;-31
2022/02/10 09:57:41;;;;;;;12.43;1.75;;;;;;;8.44;100.00;102043.16;5069529;28;20556;-32
2022/02/10 10:00:22;;;;;;;10.40;1.70;;;;;;;8.62;100.00;102048.44;5072042;28;20040;-31
2022/02/10 10:03:07;;;;;;;10.98;1.83;;;;;;;8.79;100.00;102053.13;5072685;28;20048;-31
2022/02/10 10:05:40;;;;;;;9.40;1.70;;;;;;;9.03;100.00;102060.09;5071446;28;20043;-32
2022/02/10 10:08:21;;;;;;;12.90;2.00;;;;;;;9.26;100.00;102059.81;5071394;28;20040;-34
2022/02/10 10:13:53;;;;;;;8.77;1.92;;;;;;;9.68;100.00;102057.19;5070820;28;20060;-31
2022/02/10 10:19:16;;;;;;;12.65;1.92;;;;;;;10.23;100.00;102067.19;5071805;28;20051;-31
2022/02/10 10:21:49;;;;;;;8.50;1.60;;;;;;;10.53;100.00;102062.94;5071959;28;20055;-31
2022/02/10 10:24:40;;;;;;;9.50;1.83;;;;;;;10.83;100.00;102065.03;5072313;28;20040;-32
2022/02/10 10:27:31;;;;;;;9.52;2.20;;;;;;;11.11;100.00;102066.56;5072052;28;20053;-31
2022/02/10 10:44:49;;;;;;;9.65;2.10;;;;;;;11.44;100.00;102074.50;5071083;28;20047;-32
2022/02/10 10:50:02;;;;;;;10.13;1.77;;;;;;;11.27;100.00;102080.31;5069933;28;20049;-32
2022/02/10 10:52:53;;;;;;;7.67;1.80;;;;;;;11.17;100.00;102080.31;5071833;28;20044;-32
2022/02/10 10:55:36;;;;;;;5.90;1.48;;;;;;;10.93;100.00;102068.75;5071135;28;20052;-30
2022/02/10 10:58:12;;;;;;;10.00;2.00;;;;;;;10.71;100.00;102082.03;5070639;28;20138;-31
2022/02/10 11:01:11;;;;;;;7.80;2.05;;;;;;;10.63;100.00;102076.94;5061206;28;20058;-31
2022/02/10 11:04:21;;;;;;;8.25;1.35;;;;;;;10.56;100.00;102074.41;5070779;28;20485;-32
2022/02/10 11:38:18;;;;;;;7.32;1.40;;;;;;;11.32;96.62;102065.53;5070470;28;20103;-31
2022/02/10 11:44:37;;;;;;;6.05;1.30;;;;;;;11.13;97.72;102062.41;5068012;28;20058;-32
2022/02/10 12:36:57;;;;;;;11.10;1.80;;;;;;;9.67;100.00;102063.88;5065058;28;20064;-30
2022/02/10 12:39:57;;;;;;;7.68;1.52;;;;;;;9.62;100.00;102057.41;5064005;28;20061;-32
2022/02/10 14:13:28;;;;;;;9.82;1.50;;;;;;;8.28;96.85;102074.59;5072106;28;20044;-31
2022/02/10 14:16:25;;;;;;;8.18;1.20;;;;;;;8.22;97.08;102068.09;5073141;28;20044;-31
2022/02/10 14:18:57;;;;;;;12.18;1.52;;;;;;;8.16;97.43;102068.31;5070312;28;20048;-31
2022/02/10 14:21:32;;;;;;;9.15;1.42;;;;;;;8.11;97.11;102066.28;5072031;28;20044;-32
2022/02/10 14:26:48;;;;;;;8.88;1.30;;;;;;;7.99;96.64;102059.97;5072646;28;20059;-30
2022/02/10 14:29:16;;;;;;;8.23;1.58;;;;;;;7.95;96.99;102050.44;5072298;28;20046;-31
2022/02/10 14:31:48;;;;;;;10.07;1.60;;;;;;;7.90;97.37;102062.31;5072576;28;20060;-31
2022/02/10 14:34:23;;;;;;;10.52;1.50;;;;;;;7.86;97.58;102058.34;5067868;28;20040;-31
2022/02/10 14:36:59;;;;;;;11.82;1.40;;;;;;;7.80;97.69;102059.34;5072490;28;20048;-30
2022/02/10 14:39:57;;;;;;;8.10;1.93;;;;;;;7.73;97.03;102069.81;5072301;28;20044;-31
2022/02/10 15:11:17;;;;;;;11.45;1.85;;;;;;;7.21;98.88;102057.97;5046008;28;20139;-31
2022/02/10 15:17:02;;;;;;;10.02;1.63;;;;;;;7.11;99.37;102061.41;5070166;28;20486;-33
2022/02/10 15:51:29;;;;;;;10.13;1.40;;;;;;;6.70;100.00;102051.38;5070333;28;20049;-31
2022/02/10 15:56:55;;;;;;;9.15;1.52;;;;;;;6.61;100.00;102035.34;5068602;28;20078;-30
2022/02/10 16:10:58;;;;;;;10.95;1.50;;;;;;;6.39;100.00;102046.25;5069940;28;20048;-29
2022/02/10 16:19:14;;;;;;;7.63;1.30;;;;;;;6.25;100.00;102053.97;5069617;28;20116;-30
2022/02/10 16:21:45;;;;;;;8.73;1.50;;;;;;;6.23;100.00;102045.03;5068877;28;20143;-32
2022/02/10 16:24:17;;;;;;;9.88;1.73;;;;;;;6.21;100.00;102044.44;5069323;28;20125;-31
2022/02/10 16:26:58;;;;;;;9.90;1.52;;;;;;;6.17;100.00;102046.88;5068998;28;20482;-29
2022/02/10 16:29:28;;;;;;;8.55;1.75;;;;;;;6.15;100.00;102056.50;5067716;28;20080;-30
2022/02/10 16:31:57;;;;;;;8.65;1.38;;;;;;;6.14;100.00;102046.50;5065720;28;20064;-30
2022/02/10 16:34:30;;;;;;;9.93;1.75;;;;;;;6.12;100.00;102048.66;5068654;28;20131;-30
2022/02/10 16:37:03;;;;;;;11.68;1.65;;;;;;;6.07;100.00;102054.91;5069594;28;20041;-30
2022/02/10 16:39:38;;;;;;;12.80;2.20;;;;;;;6.01;100.00;102057.78;5068945;28;20137;-31
2022/02/10 16:42:14;;;;;;;12.85;1.85;;;;;;;5.99;100.00;102062.75;5069031;28;20412;-30
2022/02/10 16:44:48;;;;;;;9.90;2.50;;;;;;;5.95;100.00;102067.09;5067778;28;20040;-32
2022/02/10 16:47:22;;;;;;;11.50;2.40;;;;;;;5.92;100.00;102045.41;5067286;28;20468;-30
2022/02/10 16:49:54;;;;;;;10.55;2.20;;;;;;;5.90;100.00;102055.88;5067199;28;20183;-32
2022/02/10 16:52:33;;;;;;;9.35;2.35;;;;;;;5.88;100.00;102054.19;5068032;28;20044;-30
2022/02/10 16:55:18;;;;;;;11.07;1.48;;;;;;;5.87;100.00;102052.47;5067798;28;20053;-30
2022/02/10 16:58:04;;;;;;;13.50;1.98;;;;;;;5.85;100.00;102049.09;5069851;28;20048;-30
2022/02/10 17:03:55;;;;;;;10.93;1.63;;;;;;;5.81;100.00;102056.19;5059273;28;20045;-30
2022/02/10 17:18:27;;;;;;;9.15;1.40;;;;;;;5.67;100.00;102056.63;4995311;28;20168;-30
2022/02/10 17:21:14;;;;;;;10.80;1.65;;;;;;;5.66;100.00;102043.88;5052642;28;20151;-30
2022/02/10 17:26:40;;;;;;;8.20;1.30;;;;;;;5.65;100.00;102050.50;5057818;28;20131;-30
2022/02/10 17:29:14;;;;;;;12.45;1.30;;;;;;;5.64;100.00;102049.66;5066978;28;20131;-30
2022/02/10 17:31:53;;;;;;;8.35;1.73;;;;;;;5.63;100.00;102050.72;5065201;28;20044;-32
2022/02/10 17:34:38;;;;;;;10.50;1.65;;;;;;;5.61;100.00;102061.19;5072920;28;20040;-30
2022/02/10 17:37:15;;;;;;;9.35;1.73;;;;;;;5.60;100.00;102055.88;5071443;28;20512;-30
2022/02/10 17:45:26;;;;;;;6.75;1.20;;;;;;;5.54;99.11;102052.16;5054586;28;20056;-30
2022/02/10 17:53:27;;;;;;;7.95;1.30;;;;;;;5.55;100.00;102064.94;5070879;28;20048;-30
2022/02/10 17:55:56;;;;;;;12.23;1.35;;;;;;;5.56;100.00;102074.06;5072172;28;20048;-31
2022/02/10 17:58:24;;;;;;;11.40;1.38;;;;;;;5.56;100.00;102068.53;5071686;28;20045;-31
2022/02/10 18:00:56;;;;;;;15.82;1.50;;;;;;;5.57;100.00;102067.47;5072115;28;20508;-30
2022/02/10 18:03:26;;;;;;;9.40;1.33;;;;;;;5.56;100.00;102063.84;5072274;28;20424;-30
2022/02/10 18:06:16;;;;;;;8.68;1.88;;;;;;;5.57;100.00;102060.00;5071054;28;20148;-31
2022/02/10 18:08:48;;;;;;;9.40;1.67;;;;;;;5.55;100.00;102064.94;5072217;28;20056;-30
2022/02/10 18:14:03;;;;;;;7.97;1.40;;;;;;;5.51;100.00;102058.16;5071631;28;20049;-30
2022/02/10 18:16:36;;;;;;;9.85;1.45;;;;;;;5.52;100.00;102060.69;5071861;28;20041;-31
2022/02/10 18:19:09;;;;;;;7.38;1.50;;;;;;;5.54;100.00;102063.22;5072253;28;20139;-31
2022/02/10 18:22:06;;;;;;;9.73;1.23;;;;;;;5.53;100.00;102061.53;5070907;28;20052;-32
2022/02/10 18:27:32;;;;;;;7.28;1.67;;;;;;;5.50;100.00;102067.56;5052991;28;20661;-30
2022/02/10 18:30:14;;;;;;;8.43;1.63;;;;;;;5.51;100.00;102070.09;5070961;28;20041;-32
2022/02/10 19:06:39;;;;;;;8.18;1.25;;;;;;;5.55;98.02;102081.53;5070523;28;20049;-29
2022/02/10 19:09:11;;;;;;;9.10;1.50;;;;;;;5.55;98.59;102081.53;5061160;28;20048;-29
2022/02/10 19:11:45;;;;;;;10.82;1.60;;;;;;;5.53;98.11;102078.16;5070889;28;20060;-29
2022/02/10 19:14:16;;;;;;;12.20;1.60;;;;;;;5.48;97.11;102087.16;5070921;28;20499;-29
2022/02/10 19:16:44;;;;;;;6.40;1.15;;;;;;;5.46;96.43;102088.47;5067110;28;20049;-30
2022/02/10 19:19:13;;;;;;;8.85;1.30;;;;;;;5.48;96.16;102075.25;5059040;28;20063;-29
2022/02/10 19:21:42;;;;;;;11.60;1.50;;;;;;;5.47;96.08;102084.63;5070087;28;20067;-31
2022/02/10 19:24:10;;;;;;;10.90;1.55;;;;;;;5.45;96.13;102079.31;5070220;28;20444;-30
2022/02/10 19:26:38;;;;;;;8.98;1.48;;;;;;;5.44;95.72;102080.41;5070628;28;20500;-30
2022/02/10 19:29:06;;;;;;;8.77;1.33;;;;;;;5.41;94.44;102078.09;5064974;28;20079;-30
2022/02/10 19:31:36;;;;;;;8.82;1.48;;;;;;;5.43;94.24;102067.63;5069626;28;20052;-30
2022/02/10 19:34:04;;;;;;;8.35;1.52;;;;;;;5.42;93.81;102068.72;5070139;28;20190;-32
2022/02/10 19:36:33;;;;;;;10.55;1.35;;;;;;;5.42;93.36;102073.41;5070614;28;20728;-29
2022/02/10 19:39:03;;;;;;;7.22;1.50;;;;;;;5.40;93.30;102065.34;5070204;28;20492;-30
2022/02/10 19:41:36;;;;;;;11.95;1.50;;;;;;;5.43;94.01;102072.31;5070228;28;20058;-31
2022/02/10 19:44:06;;;;;;;8.13;1.40;;;;;;;5.42;94.87;102073.41;5069209;28;20110;-30
2022/02/10 19:46:38;;;;;;;12.40;1.48;;;;;;;5.42;95.55;102073.41;5070484;28;20048;-32
2022/02/10 19:49:06;;;;;;;12.55;1.65;;;;;;;5.42;95.96;102081.72;5070145;28;20501;-30
2022/02/10 19:51:35;;;;;;;6.97;1.42;;;;;;;5.40;95.54;102078.34;5060738;28;20451;-30
2022/02/10 19:54:04;;;;;;;8.25;1.50;;;;;;;5.42;95.50;102076.19;5067265;28;20056;-30
2022/02/10 19:56:33;;;;;;;10.10;1.40;;;;;;;5.43;95.26;102080.63;5069453;28;20052;-31
2022/02/10 19:59:01;;;;;;;12.52;2.22;;;;;;;5.45;95.88;102072.94;5068533;28;20052;-32
2022/02/10 20:01:29;;;;;;;8.43;1.50;;;;;;;5.48;95.85;102064.16;5069127;28;20048;-29
2022/02/10 20:03:58;;;;;;;9.70;1.50;;;;;;;5.51;95.75;102070.09;5069021;28;20576;-30
2022/02/10 20:06:25;;;;;;;8.48;1.45;;;;;;;5.53;96.55;102067.09;5068377;28;20489;-31
2022/02/10 20:08:53;;;;;;;8.60;1.40;;;;;;;5.53;96.76;102053.25;5069069;28;20404;-30
2022/02/10 20:11:22;;;;;;;10.48;1.67;;;;;;;5.53;96.69;102061.53;5070030;28;20055;-30
2022/02/10 20:13:50;;;;;;;8.55;1.50;;;;;;;5.53;96.92;102047.72;5068864;28;20040;-30
2022/02/10 20:16:17;;;;;;;9.02;2.10;;;;;;;5.50;97.17;102053.72;5069311;28;20588;-30
2022/02/10 20:18:48;;;;;;;10.25;1.63;;;;;;;5.50;97.19;102051.78;5069557;28;20051;-30
2022/02/10 20:21:16;;;;;;;12.43;1.65;;;;;;;5.49;96.25;102046.47;5070139;28;20051;-29
2022/02/10 20:23:44;;;;;;;6.70;1.83;;;;;;;5.50;96.84;102053.72;5070059;28;20049;-31
2022/02/10 20:26:14;;;;;;;7.43;1.42;;;;;;;5.49;97.02;102041.78;5069306;28;20050;-30
2022/02/10 20:28:45;;;;;;;9.52;1.80;;;;;;;5.48;96.44;102047.56;5067668;28;20423;-29
2022/02/10 20:31:14;;;;;;;11.02;2.17;;;;;;;5.47;96.47;102051.41;5069830;28;20056;-30
2022/02/10 20:33:43;;;;;;;8.80;1.83;;;;;;;5.48;96.88;102053.09;5068556;28;20430;-29
2022/02/10 20:36:11;;;;;;;12.90;1.73;;;;;;;5.45;95.90;102042.50;5068513;28;20046;-29
2022/02/10 20:38:42;;;;;;;6.57;1.40;;;;;;;5.43;95.83;102048.25;5069759;28;20056;-29
2022/02/10 20:41:13;;;;;;;8.05;1.35;;;;;;;5.43;95.53;102036.34;5069007;28;20060;-30
2022/02/10 20:43:43;;;;;;;11.70;1.70;;;;;;;5.41;95.35;102041.28;5069165;28;20048;-30
2022/02/10 20:46:15;;;;;;;8.73;1.00;;;;;;;5.41;95.32;102039.34;5069568;28;20044;-29
2022/02/10 20:48:44;;;;;;;10.32;2.45;;;;;;;5.41;95.23;102032.97;5068289;28;20378;-30
2022/02/10 20:51:15;;;;;;;9.75;1.55;;;;;;;5.41;95.23;102046.81;5069692;28;20137;-30
2022/02/10 20:53:46;;;;;;;8.80;1.63;;;;;;;5.43;96.22;102036.34;5069444;28;20057;-29
2022/02/10 20:56:17;;;;;;;10.43;1.90;;;;;;;5.44;95.56;102024.19;5068493;28;20051;-32
2022/02/10 20:58:49;;;;;;;11.82;1.90;;;;;;;5.41;95.38;102032.97;5069238;28;20429;-30
2022/02/10 21:01:19;;;;;;;10.90;1.67;;;;;;;5.44;95.22;102018.66;5068560;28;20091;-30
2022/02/10 21:03:46;;;;;;;10.25;1.85;;;;;;;5.45;95.15;102021.19;5069273;28;20045;-30
2022/02/10 21:06:27;;;;;;;8.48;1.50;;;;;;;5.46;95.96;102022.88;5071240;28;20397;-30
2022/02/10 21:09:00;;;;;;;9.77;1.50;;;;;;;5.45;95.70;102025.88;5072334;28;20147;-29
2022/02/10 21:11:28;;;;;;;9.43;1.77;;;;;;;5.43;95.70;102023.34;5073212;28;20056;-30
2022/02/10 21:14:02;;;;;;;7.78;1.80;;;;;;;5.45;96.13;102042.50;5073576;28;20048;-30
2022/02/10 21:16:31;;;;;;;15.82;1.85;;;;;;;5.45;96.32;102036.97;5072576;28;20139;-31
2022/02/10 21:18:59;;;;;;;9.10;1.80;;;;;;;5.48;97.32;102020.72;5073227;28;20052;-29
2022/02/10 21:21:27;;;;;;;10.85;2.10;;;;;;;5.49;97.60;102032.63;5072548;28;20076;-29
2022/02/10 21:24:01;;;;;;;9.73;1.40;;;;;;;5.46;98.12;102033.94;5071702;28;20044;-29
2022/02/10 21:26:33;;;;;;;13.20;1.80;;;;;;;5.46;98.82;102030.34;5062646;28;20052;-29
2022/02/10 21:29:04;;;;;;;14.55;1.70;;;;;;;5.48;98.00;102030.94;5071048;28;20044;-30
2022/02/10 21:31:42;;;;;;;10.32;1.73;;;;;;;5.49;99.21;102022.41;5072478;28;20128;-29
2022/02/10 21:34:14;;;;;;;10.00;1.70;;;;;;;5.49;99.54;102033.50;5073725;28;20048;-30
2022/02/10 21:36:55;;;;;;;13.57;2.30;;;;;;;5.49;99.73;102033.50;5073261;28;20045;-30
2022/02/10 21:39:31;;;;;;;12.88;2.17;;;;;;;5.47;100.00;102035.66;5074115;28;20053;-30
2022/02/10 22:09:47;;;;;;;13.82;2.22;;;;;;;5.48;100.00;102022.66;5073509;28;20055;-31
2022/02/10 22:18:33;;;;;;;14.88;2.35;;;;;;;5.64;100.00;102024.72;5030598;28;20136;-29
2022/02/10 22:21:04;;;;;;;10.77;1.73;;;;;;;5.70;99.02;102022.94;5031066;28;20152;-31
2022/02/10 22:23:35;;;;;;;11.77;1.95;;;;;;;5.73;99.08;102028.84;5057562;28;20087;-32
2022/02/10 22:26:06;;;;;;;11.30;2.10;;;;;;;5.76;98.70;102019.22;5072400;28;20058;-31
2022/02/10 22:28:45;;;;;;;12.30;2.40;;;;;;;5.79;98.06;102025.13;5063308;28;20135;-31
2022/02/10 22:31:27;;;;;;;13.82;2.47;;;;;;;5.82;98.27;102023.78;5073179;28;20040;-31
2022/02/10 22:34:06;;;;;;;14.25;2.33;;;;;;;5.83;98.62;102020.78;5072686;28;20044;-30
2022/02/10 22:36:37;;;;;;;14.75;2.50;;;;;;;5.84;98.21;102013.31;5073113;28;20048;-30
2022/02/10 22:39:06;;;;;;;15.98;2.40;;;;;;;5.84;98.48;102013.31;5072789;28;20048;-30
2022/02/10 22:41:34;;;;;;;15.80;2.38;;;;;;;5.85;99.28;102013.06;5072296;28;20048;-30
2022/02/10 22:44:04;;;;;;;16.02;2.00;;;;;;;5.84;100.00;102007.78;5062054;28;20052;-30
2022/02/10 22:46:33;;;;;;;20.10;2.92;;;;;;;5.80;100.00;102007.41;5072052;28;20100;-29
2022/02/10 22:49:01;;;;;;;15.88;2.25;;;;;;;5.76;100.00;102011.75;5072617;28;20041;-30
2022/02/10 22:51:31;;;;;;;12.63;2.10;;;;;;;5.73;100.00;102011.38;5072961;28;20056;-30
2022/02/10 22:54:01;;;;;;;12.80;2.05;;;;;;;5.72;100.00;102007.78;5071565;28;20049;-30
2022/02/10 22:56:29;;;;;;;12.65;2.63;;;;;;;5.69;100.00;101997.16;5060708;28;20408;-30
2022/02/10 22:59:01;;;;;;;17.30;2.95;;;;;;;5.67;100.00;102006.78;5072536;28;20032;-31
2022/02/10 23:01:29;;;;;;;16.48;2.50;;;;;;;5.65;100.00;102006.19;5071756;28;20048;-30
2022/02/10 23:03:58;;;;;;;17.05;2.65;;;;;;;5.64;100.00;102013.66;5071933;28;20110;-30
2022/02/10 23:06:26;;;;;;;17.25;3.40;;;;;;;5.63;100.00;102023.03;5072864;28;20416;-30
2022/02/10 23:08:53;;;;;;;15.48;2.85;;;;;;;5.64;100.00;102019.19;5071551;28;20123;-30
2022/02/10 23:11:28;;;;;;;13.48;1.80;;;;;;;5.65;100.00;102009.78;5071423;28;20071;-30
2022/02/10 23:13:58;;;;;;;16.05;2.63;;;;;;;5.65;100.00;102015.34;5071259;28;20049;-31
2022/02/10 23:16:27;;;;;;;20.35;2.90;;;;;;;5.70;100.00;102015.47;5070741;28;20044;-30
2022/02/10 23:18:55;;;;;;;15.60;2.53;;;;;;;5.71;100.00;102017.16;5072316;28;20044;-30
2022/02/10 23:21:24;;;;;;;15.95;2.40;;;;;;;5.73;100.00;102006.69;5072304;28;20056;-29
2022/02/10 23:23:52;;;;;;;17.38;2.80;;;;;;;5.76;100.00;102010.91;5071522;28;20215;-29
2022/02/10 23:26:21;;;;;;;15.95;2.80;;;;;;;5.79;100.00;102010.44;5072008;28;20068;-30
2022/02/10 23:28:52;;;;;;;17.80;2.53;;;;;;;5.79;100.00;102008.50;5061393;28;20416;-29
2022/02/10 23:31:23;;;;;;;18.25;2.88;;;;;;;5.81;100.00;102002.72;5072091;28;20501;-30
2022/02/10 23:33:54;;;;;;;14.80;2.13;;;;;;;5.81;100.00;102005.47;5072063;28;20080;-30
2022/02/10 23:39:10;;;;;;;23.20;3.55;;;;;;;5.84;100.00;102003.06;5057583;28;20444;-31
2022/02/10 23:44:34;;;;;;;17.92;3.08;;;;;;;5.87;100.00;102007.28;5063797;28;20048;-29
2022/02/10 23:47:04;;;;;;;19.40;2.80;;;;;;;5.88;100.00;101990.47;5071692;28;20382;-31
2022/02/10 23:49:35;;;;;;;16.88;2.80;;;;;;;5.90;100.00;101997.69;5063354;28;20076;-33
2022/02/10 23:52:06;;;;;;;16.42;2.67;;;;;;;5.91;100.00;101980.84;5071132;28;20040;-30
2022/02/10 23:54:37;;;;;;;17.47;2.83;;;;;;;5.94;100.00;101979.53;5071524;28;20049;-30
2022/02/10 23:57:11;;;;;;;14.85;2.80;;;;;;;5.94;100.00;101983.13;5070708;28;20131;-30
